Time;durP1;ratioP1;P1;durP2;ratioP2;P2;SDS_P1;SDS_P2;PMS_P1;PMS_P2;Temp;Humidity;BMP_temperature;BMP_pressure;BME280_temperature;BME280_humidity;BME280_pressure;Samples;Min_cycle;Max_cycle;Signal;HPM_P1;HPM_P2
2022/03/14 00:02:08;;;;;;;7.28;3.55;;;;;;;;;;5036716;28;20049;-78
2022/03/14 00:04:38;;;;;;;8.73;4.20;;;;;;;;;;5037490;28;20048;-78
2022/03/14 00:07:05;;;;;;;8.07;4.03;;;;;;;;;;5032786;28;20402;-78
2022/03/14 00:09:58;;;;;;;7.97;4.13;;;;;;;;;;5037348;28;20072;-78
2022/03/14 00:12:26;;;;;;;8.50;4.22;;;;;;;;;;5037861;28;20140;-79
2022/03/14 00:14:54;;;;;;;8.07;3.92;;;;;;;;;;5037377;28;20053;-78
2022/03/14 00:17:24;;;;;;;7.38;3.58;;;;;;;;;;5033936;28;20207;-70
2022/03/14 00:19:54;;;;;;;8.95;4.20;;;;;;;;;;5035575;28;20041;-72
2022/03/14 00:22:22;;;;;;;7.15;3.90;;;;;;;;;;5033834;28;20056;-71
2022/03/14 00:24:50;;;;;;;7.43;3.72;;;;;;;;;;5033480;28;20073;-71
2022/03/14 00:27:18;;;;;;;8.50;4.07;;;;;;;;;;5037413;28;20103;-71
2022/03/14 00:29:46;;;;;;;6.80;3.72;;;;;;;;;;5034144;28;20053;-72
2022/03/14 00:32:15;;;;;;;9.23;4.05;;;;;;;;;;5031436;28;20438;-71
2022/03/14 00:34:43;;;;;;;7.25;3.47;;;;;;;;;;5036755;28;20048;-71
2022/03/14 00:37:13;;;;;;;8.60;3.92;;;;;;;;;;5032563;28;20053;-70
2022/03/14 00:39:41;;;;;;;9.27;4.57;;;;;;;;;;5032126;28;20092;-70
2022/03/14 00:42:09;;;;;;;8.77;4.13;;;;;;;;;;5031795;28;20465;-70
2022/03/14 00:44:37;;;;;;;7.38;4.10;;;;;;;;;;5034034;28;20050;-70
2022/03/14 00:47:05;;;;;;;7.43;4.03;;;;;;;;;;5030743;28;20448;-70
2022/03/14 00:49:36;;;;;;;8.60;4.05;;;;;;;;;;5032698;28;20053;-70
2022/03/14 00:52:06;;;;;;;8.80;4.07;;;;;;;;;;5034051;28;20049;-70
2022/03/14 00:54:36;;;;;;;8.32;4.20;;;;;;;;;;5035856;28;20057;-70
2022/03/14 00:57:03;;;;;;;9.60;4.40;;;;;;;;;;5032551;28;20095;-70
2022/03/14 00:59:31;;;;;;;7.88;4.03;;;;;;;;;;5032870;28;20138;-70
2022/03/14 01:01:59;;;;;;;10.23;4.60;;;;;;;;;;5035244;28;20133;-70
2022/03/14 01:04:27;;;;;;;7.32;4.03;;;;;;;;;;5033530;28;20053;-70
2022/03/14 01:06:56;;;;;;;9.55;4.70;;;;;;;;;;5034766;28;20052;-70
2022/03/14 01:09:23;;;;;;;8.05;4.82;;;;;;;;;;5034147;28;20151;-70
2022/03/14 01:11:53;;;;;;;7.68;3.92;;;;;;;;;;5034514;28;20091;-70
2022/03/14 01:14:22;;;;;;;10.80;4.50;;;;;;;;;;5034957;28;20045;-70
2022/03/14 01:16:49;;;;;;;8.80;4.50;;;;;;;;;;5034000;28;20508;-71
2022/03/14 01:19:17;;;;;;;9.98;4.57;;;;;;;;;;5033227;28;20629;-70
2022/03/14 01:21:45;;;;;;;10.50;5.57;;;;;;;;;;5035624;28;20059;-70
2022/03/14 01:24:12;;;;;;;8.65;4.60;;;;;;;;;;5033996;28;20056;-71
2022/03/14 01:27:05;;;;;;;10.13;4.63;;;;;;;;;;5035827;28;20052;-70
2022/03/14 01:29:34;;;;;;;8.90;5.03;;;;;;;;;;5031956;28;20132;-70
2022/03/14 01:32:02;;;;;;;9.02;4.70;;;;;;;;;;5032614;28;20053;-70
2022/03/14 01:34:29;;;;;;;10.10;4.80;;;;;;;;;;5035289;28;20519;-70
2022/03/14 01:36:57;;;;;;;9.65;5.10;;;;;;;;;;5036405;28;20106;-70
2022/03/14 01:39:25;;;;;;;9.40;4.68;;;;;;;;;;5032341;28;20094;-69
2022/03/14 01:41:55;;;;;;;9.50;5.20;;;;;;;;;;5033974;28;20151;-70
2022/03/14 01:44:24;;;;;;;10.27;5.13;;;;;;;;;;5034654;28;20068;-70
2022/03/14 01:46:52;;;;;;;9.65;4.82;;;;;;;;;;5032557;28;20060;-70
2022/03/14 01:49:20;;;;;;;11.88;5.43;;;;;;;;;;5034025;28;20124;-70
2022/03/14 01:51:52;;;;;;;9.50;4.80;;;;;;;;;;5034886;28;20045;-70
2022/03/14 01:54:20;;;;;;;11.32;5.30;;;;;;;;;;5030460;28;20053;-72
2022/03/14 01:56:49;;;;;;;11.35;6.03;;;;;;;;;;5031749;28;20140;-72
2022/03/14 01:59:18;;;;;;;14.32;7.13;;;;;;;;;;5036786;28;20041;-71
2022/03/14 02:01:47;;;;;;;11.82;6.45;;;;;;;;;;5036194;28;20098;-78
2022/03/14 02:04:17;;;;;;;8.98;4.80;;;;;;;;;;5034439;28;20162;-77
2022/03/14 02:06:46;;;;;;;12.45;5.45;;;;;;;;;;5033971;28;20053;-77
2022/03/14 02:09:14;;;;;;;11.13;4.90;;;;;;;;;;5035655;28;20669;-78
2022/03/14 02:12:07;;;;;;;7.78;4.57;;;;;;;;;;5033688;28;20051;-77
2022/03/14 02:14:39;;;;;;;10.68;5.32;;;;;;;;;;5032007;28;20432;-78
2022/03/14 02:17:09;;;;;;;11.27;5.90;;;;;;;;;;5035340;28;20642;-78
2022/03/14 02:19:38;;;;;;;11.35;6.07;;;;;;;;;;5034892;28;20527;-78
2022/03/14 02:22:13;;;;;;;14.38;7.22;;;;;;;;;;5036933;28;20355;-70
2022/03/14 02:24:42;;;;;;;12.23;6.78;;;;;;;;;;5035195;28;20064;-70
2022/03/14 02:27:11;;;;;;;16.85;8.05;;;;;;;;;;5036324;28;20056;-71
2022/03/14 02:29:39;;;;;;;14.65;7.75;;;;;;;;;;5038661;28;20145;-70
2022/03/14 02:32:07;;;;;;;15.27;7.38;;;;;;;;;;5035443;28;20546;-70
2022/03/14 02:34:35;;;;;;;15.20;7.63;;;;;;;;;;5031143;28;20784;-70
2022/03/14 02:37:04;;;;;;;13.80;7.30;;;;;;;;;;5037675;28;20263;-71
2022/03/14 02:39:34;;;;;;;18.15;8.77;;;;;;;;;;5033692;28;20087;-70
2022/03/14 02:42:02;;;;;;;14.88;8.68;;;;;;;;;;5039468;28;20149;-70
2022/03/14 02:44:31;;;;;;;18.25;9.52;;;;;;;;;;5035010;28;20492;-70
2022/03/14 02:46:59;;;;;;;15.82;9.45;;;;;;;;;;5035603;28;20053;-70
2022/03/14 02:49:27;;;;;;;20.15;10.40;;;;;;;;;;5041002;28;20059;-70
2022/03/14 02:51:55;;;;;;;20.10;10.15;;;;;;;;;;5037226;28;20572;-70
2022/03/14 02:54:22;;;;;;;18.75;9.23;;;;;;;;;;5035641;28;20136;-70
2022/03/14 02:56:52;;;;;;;20.83;11.00;;;;;;;;;;5033341;28;20570;-70
2022/03/14 02:59:20;;;;;;;19.98;9.73;;;;;;;;;;5035659;28;20502;-70
2022/03/14 03:01:48;;;;;;;18.58;9.77;;;;;;;;;;5035266;28;20482;-71
2022/03/14 03:04:16;;;;;;;18.88;9.30;;;;;;;;;;5037402;28;20485;-70
2022/03/14 03:06:46;;;;;;;21.45;11.82;;;;;;;;;;5033062;28;20473;-70
2022/03/14 03:09:13;;;;;;;25.77;12.18;;;;;;;;;;5031350;28;20049;-71
2022/03/14 03:11:44;;;;;;;26.77;12.77;;;;;;;;;;5036286;28;20124;-70
2022/03/14 03:14:13;;;;;;;24.17;12.32;;;;;;;;;;5037764;28;20117;-70
2022/03/14 03:16:42;;;;;;;27.15;13.68;;;;;;;;;;5035480;28;20520;-69
2022/03/14 03:19:10;;;;;;;27.60;14.07;;;;;;;;;;5035730;28;20491;-69
2022/03/14 03:21:40;;;;;;;29.30;15.05;;;;;;;;;;5033564;28;20560;-69
2022/03/14 03:24:08;;;;;;;28.25;14.27;;;;;;;;;;5037386;28;20144;-69
2022/03/14 03:27:00;;;;;;;30.25;15.60;;;;;;;;;;5032045;28;20537;-77
2022/03/14 03:29:29;;;;;;;30.20;15.18;;;;;;;;;;5033666;28;20041;-77
2022/03/14 03:31:56;;;;;;;35.45;15.55;;;;;;;;;;5039336;28;20044;-77
2022/03/14 03:34:24;;;;;;;32.47;16.77;;;;;;;;;;5034666;28;20489;-78
2022/03/14 03:37:16;;;;;;;33.47;16.33;;;;;;;;;;5037876;28;20086;-77
2022/03/14 03:39:44;;;;;;;37.65;17.58;;;;;;;;;;5033537;28;20563;-77
2022/03/14 03:42:12;;;;;;;39.10;19.10;;;;;;;;;;5031609;28;20041;-77
2022/03/14 03:44:41;;;;;;;39.30;19.33;;;;;;;;;;5031436;28;20056;-76
2022/03/14 03:47:09;;;;;;;37.60;17.60;;;;;;;;;;5035887;28;20048;-77
2022/03/14 03:49:38;;;;;;;36.28;16.55;;;;;;;;;;5036468;28;20057;-76
2022/03/14 03:52:05;;;;;;;34.55;16.23;;;;;;;;;;5033846;28;20083;-76
2022/03/14 03:54:33;;;;;;;30.95;16.33;;;;;;;;;;5039155;28;20500;-77
2022/03/14 03:57:01;;;;;;;34.67;15.70;;;;;;;;;;5036289;28;20106;-70
2022/03/14 03:59:30;;;;;;;29.88;14.45;;;;;;;;;;5039168;28;20469;-70
2022/03/14 04:02:00;;;;;;;34.85;17.38;;;;;;;;;;5034131;28;20405;-70
2022/03/14 04:04:28;;;;;;;28.58;14.77;;;;;;;;;;5039799;28;20052;-70
2022/03/14 04:06:56;;;;;;;30.42;14.57;;;;;;;;;;5032841;28;20723;-70
2022/03/14 04:09:24;;;;;;;35.90;15.60;;;;;;;;;;5030482;28;20134;-71
2022/03/14 04:11:52;;;;;;;30.52;14.70;;;;;;;;;;5035225;28;20048;-70
2022/03/14 04:14:21;;;;;;;33.60;15.50;;;;;;;;;;5031175;28;20272;-71
2022/03/14 04:16:49;;;;;;;28.35;13.30;;;;;;;;;;5033300;28;20050;-70
2022/03/14 04:19:22;;;;;;;34.65;13.60;;;;;;;;;;5032788;28;20052;-70
2022/03/14 04:21:52;;;;;;;32.55;13.82;;;;;;;;;;5037119;28;20124;-70
2022/03/14 04:24:20;;;;;;;29.05;13.65;;;;;;;;;;5032573;28;20045;-70
2022/03/14 04:26:49;;;;;;;26.80;11.70;;;;;;;;;;5032728;28;20060;-70
2022/03/14 04:29:16;;;;;;;32.00;13.77;;;;;;;;;;5037803;28;20057;-70
2022/03/14 04:31:44;;;;;;;30.10;12.82;;;;;;;;;;5038763;28;20168;-70
2022/03/14 04:34:12;;;;;;;28.10;12.30;;;;;;;;;;5037560;28;20048;-70
2022/03/14 04:36:40;;;;;;;27.90;12.07;;;;;;;;;;5035225;28;20442;-70
2022/03/14 04:39:08;;;;;;;29.08;12.48;;;;;;;;;;5034879;28;20071;-70
2022/03/14 04:41:37;;;;;;;27.63;12.45;;;;;;;;;;5035429;28;20046;-70
2022/03/14 04:44:06;;;;;;;31.42;12.82;;;;;;;;;;5035557;28;20049;-70
2022/03/14 04:46:34;;;;;;;29.27;12.20;;;;;;;;;;5033821;28;20078;-71
2022/03/14 04:49:04;;;;;;;28.42;12.55;;;;;;;;;;5034270;28;20094;-70
2022/03/14 04:51:32;;;;;;;36.15;15.35;;;;;;;;;;5035814;28;20080;-70
2022/03/14 04:54:01;;;;;;;32.38;14.13;;;;;;;;;;5031573;28;20053;-70
2022/03/14 04:56:29;;;;;;;32.97;15.15;;;;;;;;;;5032776;28;20147;-70
2022/03/14 04:58:56;;;;;;;36.03;14.65;;;;;;;;;;5034118;28;20060;-70
2022/03/14 05:01:24;;;;;;;36.20;15.70;;;;;;;;;;5036484;28;20469;-70
2022/03/14 05:03:52;;;;;;;31.95;14.10;;;;;;;;;;5031288;28;20600;-70
2022/03/14 05:06:20;;;;;;;32.60;15.82;;;;;;;;;;5029876;28;20813;-70
2022/03/14 05:08:49;;;;;;;37.65;17.08;;;;;;;;;;5033402;28;20053;-72
2022/03/14 05:11:19;;;;;;;41.95;16.52;;;;;;;;;;5037338;28;20125;-70
2022/03/14 05:13:47;;;;;;;37.30;17.17;;;;;;;;;;5031244;28;20374;-70
2022/03/14 05:16:15;;;;;;;38.70;18.15;;;;;;;;;;5034069;28;20045;-70
2022/03/14 05:18:42;;;;;;;44.88;19.30;;;;;;;;;;5030932;28;20136;-71
2022/03/14 05:21:10;;;;;;;39.47;18.00;;;;;;;;;;5036881;28;20064;-71
2022/03/14 05:23:38;;;;;;;41.95;19.67;;;;;;;;;;5035003;28;20060;-71
2022/03/14 05:26:05;;;;;;;39.35;18.52;;;;;;;;;;5035242;28;20500;-71
2022/03/14 05:28:35;;;;;;;35.15;16.65;;;;;;;;;;5030163;28;20512;-70
2022/03/14 05:31:04;;;;;;;42.30;18.00;;;;;;;;;;5032181;28;20057;-71
2022/03/14 05:33:32;;;;;;;40.70;17.38;;;;;;;;;;5034389;28;20057;-71
2022/03/14 05:36:01;;;;;;;36.20;16.35;;;;;;;;;;5032312;28;20146;-70
2022/03/14 05:38:28;;;;;;;36.90;17.40;;;;;;;;;;5032566;28;20053;-72
2022/03/14 05:40:56;;;;;;;35.67;17.30;;;;;;;;;;5034013;28;20041;-71
2022/03/14 05:43:27;;;;;;;34.90;16.85;;;;;;;;;;5030846;28;20533;-70
2022/03/14 05:45:56;;;;;;;32.13;16.80;;;;;;;;;;5036446;28;20462;-70
2022/03/14 05:48:24;;;;;;;35.40;16.15;;;;;;;;;;5034057;28;20216;-70
2022/03/14 05:50:51;;;;;;;34.63;16.20;;;;;;;;;;5030629;28;20159;-70
2022/03/14 05:53:19;;;;;;;34.22;17.20;;;;;;;;;;5034264;28;20784;-70
2022/03/14 05:55:50;;;;;;;29.65;14.73;;;;;;;;;;5033298;28;20056;-72
2022/03/14 05:58:18;;;;;;;32.97;16.05;;;;;;;;;;5038944;28;20461;-73
2022/03/14 06:00:48;;;;;;;32.28;15.80;;;;;;;;;;5037130;28;20593;-71
2022/03/14 06:03:19;;;;;;;32.60;16.75;;;;;;;;;;5035282;28;20092;-70
2022/03/14 06:05:48;;;;;;;33.33;16.35;;;;;;;;;;5039090;28;20478;-71
2022/03/14 06:08:15;;;;;;;36.67;17.08;;;;;;;;;;5039477;28;20131;-71
2022/03/14 06:10:46;;;;;;;35.03;16.17;;;;;;;;;;5037529;28;20045;-71
2022/03/14 06:13:14;;;;;;;36.53;16.33;;;;;;;;;;5039194;28;20049;-71
2022/03/14 06:15:41;;;;;;;33.17;17.77;;;;;;;;;;5037757;28;20056;-71
2022/03/14 06:18:09;;;;;;;33.15;16.08;;;;;;;;;;5032452;28;20408;-72
2022/03/14 06:20:38;;;;;;;32.63;16.70;;;;;;;;;;5038254;28;20124;-72
2022/03/14 06:23:06;;;;;;;33.45;15.98;;;;;;;;;;5039906;28;20072;-71
2022/03/14 06:25:36;;;;;;;30.35;16.67;;;;;;;;;;5036884;28;20050;-71
2022/03/14 06:28:05;;;;;;;34.83;16.60;;;;;;;;;;5034575;28;20052;-71
2022/03/14 06:30:34;;;;;;;32.88;16.15;;;;;;;;;;5041833;28;20507;-75
2022/03/14 06:33:01;;;;;;;32.97;17.20;;;;;;;;;;5037426;28;20056;-76
2022/03/14 06:35:35;;;;;;;33.38;16.92;;;;;;;;;;5036785;28;20100;-76
2022/03/14 06:38:05;;;;;;;35.78;17.58;;;;;;;;;;5041024;28;20060;-75
2022/03/14 06:40:33;;;;;;;28.60;16.80;;;;;;;;;;5039980;28;20049;-76
2022/03/14 06:43:01;;;;;;;36.40;17.25;;;;;;;;;;5037094;28;20568;-71
2022/03/14 06:45:29;;;;;;;31.73;16.92;;;;;;;;;;5040621;28;20485;-71
2022/03/14 06:47:58;;;;;;;34.83;16.33;;;;;;;;;;5036435;28;20052;-71
2022/03/14 06:50:25;;;;;;;34.17;17.45;;;;;;;;;;5041460;28;20073;-71
2022/03/14 06:52:57;;;;;;;36.97;18.90;;;;;;;;;;5035217;28;20055;-70
2022/03/14 06:55:27;;;;;;;32.72;17.42;;;;;;;;;;5039394;28;20252;-71
2022/03/14 06:57:55;;;;;;;32.45;17.90;;;;;;;;;;5038818;28;20106;-71
2022/03/14 07:00:23;;;;;;;33.55;19.13;;;;;;;;;;5032704;28;20064;-70
2022/03/14 07:02:51;;;;;;;35.08;17.75;;;;;;;;;;5038344;28;20053;-71
2022/03/14 07:05:21;;;;;;;37.78;19.38;;;;;;;;;;5038097;28;20057;-71
2022/03/14 07:07:49;;;;;;;37.78;19.65;;;;;;;;;;5037621;28;20053;-71
2022/03/14 07:10:17;;;;;;;36.00;17.58;;;;;;;;;;5034789;28;20486;-71
2022/03/14 07:12:48;;;;;;;36.10;18.60;;;;;;;;;;5040311;28;20123;-71
2022/03/14 07:15:16;;;;;;;42.40;19.85;;;;;;;;;;5034447;28;20071;-71
2022/03/14 07:17:44;;;;;;;46.15;19.75;;;;;;;;;;5041743;28;20135;-71
2022/03/14 07:20:12;;;;;;;41.70;20.45;;;;;;;;;;5036030;28;20203;-71
2022/03/14 07:22:50;;;;;;;43.15;19.98;;;;;;;;;;5033356;28;20383;-71
2022/03/14 07:25:21;;;;;;;43.88;19.60;;;;;;;;;;5035364;28;20053;-71
2022/03/14 07:28:14;;;;;;;38.13;19.17;;;;;;;;;;5037584;28;20063;-76
2022/03/14 07:30:42;;;;;;;34.25;18.40;;;;;;;;;;5037862;28;20492;-75
2022/03/14 07:33:09;;;;;;;38.78;20.00;;;;;;;;;;5036519;28;20045;-76
2022/03/14 07:35:37;;;;;;;37.28;18.85;;;;;;;;;;5036121;28;20199;-76
2022/03/14 07:38:05;;;;;;;35.22;17.85;;;;;;;;;;5030568;28;20053;-71
2022/03/14 07:40:34;;;;;;;36.17;19.58;;;;;;;;;;5031670;28;20571;-71
2022/03/14 07:43:01;;;;;;;39.70;18.05;;;;;;;;;;5033652;28;20053;-71
2022/03/14 07:45:31;;;;;;;41.17;18.85;;;;;;;;;;5035926;28;20069;-71
2022/03/14 07:48:05;;;;;;;40.45;19.80;;;;;;;;;;5035556;28;20547;-71
2022/03/14 07:50:33;;;;;;;36.00;17.00;;;;;;;;;;5034020;28;20093;-71
2022/03/14 07:53:01;;;;;;;44.75;19.42;;;;;;;;;;5031853;28;20040;-71
2022/03/14 07:55:29;;;;;;;45.78;19.65;;;;;;;;;;5038565;28;20307;-72
2022/03/14 07:58:23;;;;;;;46.30;20.92;;;;;;;;;;5034155;28;20056;-70
2022/03/14 08:00:56;;;;;;;46.30;20.45;;;;;;;;;;5036641;28;20454;-71
2022/03/14 08:03:25;;;;;;;49.83;24.35;;;;;;;;;;5032735;28;20048;-71
2022/03/14 08:05:58;;;;;;;47.65;21.83;;;;;;;;;;5032293;28;20049;-77
2022/03/14 08:08:26;;;;;;;45.45;19.98;;;;;;;;;;5039064;28;20182;-76
2022/03/14 08:10:54;;;;;;;46.95;21.95;;;;;;;;;;5035673;28;20105;-77
2022/03/14 08:13:22;;;;;;;36.00;18.83;;;;;;;;;;5033812;28;20060;-77
2022/03/14 08:15:50;;;;;;;38.63;19.20;;;;;;;;;;5034893;28;20403;-77
2022/03/14 08:18:22;;;;;;;41.75;19.73;;;;;;;;;;5032207;28;20139;-76
2022/03/14 08:21:14;;;;;;;33.53;16.60;;;;;;;;;;5044311;28;20274;-78
2022/03/14 08:23:45;;;;;;;32.30;16.50;;;;;;;;;;5030700;28;20136;-71
2022/03/14 08:26:13;;;;;;;35.92;17.02;;;;;;;;;;5030272;28;20064;-72
2022/03/14 08:28:42;;;;;;;35.58;17.48;;;;;;;;;;5033296;28;20057;-71
2022/03/14 08:31:12;;;;;;;47.08;19.52;;;;;;;;;;5032140;28;20056;-70
2022/03/14 08:33:42;;;;;;;36.55;18.08;;;;;;;;;;5027525;28;20041;-71
2022/03/14 08:36:10;;;;;;;33.42;14.98;;;;;;;;;;5033714;28;20574;-71
2022/03/14 08:38:38;;;;;;;31.88;14.50;;;;;;;;;;5032391;28;20044;-72
2022/03/14 08:41:06;;;;;;;32.13;15.90;;;;;;;;;;5030554;28;20053;-70
2022/03/14 08:43:34;;;;;;;26.27;13.68;;;;;;;;;;5034768;28;20049;-71
2022/03/14 08:46:02;;;;;;;31.13;14.52;;;;;;;;;;5033468;28;20076;-71
2022/03/14 08:48:30;;;;;;;31.85;15.63;;;;;;;;;;5032435;28;20541;-71
2022/03/14 08:50:59;;;;;;;35.95;14.07;;;;;;;;;;5034194;28;20084;-70
2022/03/14 08:53:26;;;;;;;29.23;15.00;;;;;;;;;;5031651;28;20041;-71
2022/03/14 08:55:55;;;;;;;34.47;14.80;;;;;;;;;;5031367;28;20227;-71
2022/03/14 08:58:25;;;;;;;35.03;15.60;;;;;;;;;;5033652;28;20049;-70
2022/03/14 09:00:53;;;;;;;34.58;15.43;;;;;;;;;;5030894;28;20052;-70
2022/03/14 09:03:21;;;;;;;35.83;16.52;;;;;;;;;;5031623;28;20053;-70
2022/03/14 09:05:48;;;;;;;33.08;15.35;;;;;;;;;;5032124;28;20045;-70
2022/03/14 09:08:18;;;;;;;33.58;15.10;;;;;;;;;;5034281;28;20079;-70
2022/03/14 09:10:46;;;;;;;36.58;16.17;;;;;;;;;;5033060;28;20056;-70
2022/03/14 09:13:14;;;;;;;32.80;15.25;;;;;;;;;;5039267;28;20068;-69
2022/03/14 09:15:42;;;;;;;30.10;15.55;;;;;;;;;;5035480;28;20048;-70
2022/03/14 09:18:09;;;;;;;34.08;15.75;;;;;;;;;;5031482;28;20059;-72
2022/03/14 09:20:40;;;;;;;32.03;15.48;;;;;;;;;;5034690;28;20478;-69
2022/03/14 09:23:08;;;;;;;35.67;15.95;;;;;;;;;;5030983;28;20099;-70
2022/03/14 09:25:39;;;;;;;40.90;17.73;;;;;;;;;;5034187;28;20049;-69
2022/03/14 09:28:06;;;;;;;39.50;17.83;;;;;;;;;;5034484;28;20363;-68
2022/03/14 09:30:37;;;;;;;35.42;15.95;;;;;;;;;;5033983;28;20053;-69
2022/03/14 09:33:05;;;;;;;39.95;17.13;;;;;;;;;;5029651;28;20391;-69
2022/03/14 09:35:34;;;;;;;38.20;18.10;;;;;;;;;;5036110;28;20128;-69
2022/03/14 09:38:03;;;;;;;46.15;18.83;;;;;;;;;;5036665;28;20053;-69
2022/03/14 09:40:32;;;;;;;38.28;18.17;;;;;;;;;;5032518;28;20513;-68
2022/03/14 09:43:01;;;;;;;30.92;15.30;;;;;;;;;;5035344;28;20577;-68
2022/03/14 09:45:31;;;;;;;31.65;14.40;;;;;;;;;;5035475;28;20052;-68
2022/03/14 09:48:01;;;;;;;31.95;14.60;;;;;;;;;;5033127;28;20072;-68
2022/03/14 09:50:36;;;;;;;36.00;14.02;;;;;;;;;;5038465;28;20493;-68
2022/03/14 09:53:13;;;;;;;33.78;13.82;;;;;;;;;;5032836;28;20077;-68
2022/03/14 09:55:43;;;;;;;37.15;14.57;;;;;;;;;;5032775;28;20140;-77
2022/03/14 09:58:12;;;;;;;39.70;18.35;;;;;;;;;;5032758;28;20144;-77
2022/03/14 10:00:40;;;;;;;40.40;17.83;;;;;;;;;;5038201;28;20139;-77
2022/03/14 10:03:14;;;;;;;33.92;18.75;;;;;;;;;;5036458;28;20100;-77
2022/03/14 10:05:42;;;;;;;39.30;17.02;;;;;;;;;;5037438;28;20052;-77
2022/03/14 10:08:10;;;;;;;36.92;16.10;;;;;;;;;;5035202;28;20045;-77
2022/03/14 10:10:38;;;;;;;33.20;17.92;;;;;;;;;;5034508;28;20135;-77
2022/03/14 10:13:06;;;;;;;37.47;15.63;;;;;;;;;;5035133;28;20053;-76
2022/03/14 10:15:37;;;;;;;29.25;13.95;;;;;;;;;;5036682;28;20037;-68
2022/03/14 10:18:10;;;;;;;34.90;15.57;;;;;;;;;;5038975;28;20589;-68
2022/03/14 10:20:55;;;;;;;30.15;13.77;;;;;;;;;;5036435;28;20065;-68
2022/03/14 10:23:29;;;;;;;30.80;13.13;;;;;;;;;;5034017;28;20165;-68
2022/03/14 10:25:58;;;;;;;34.53;15.38;;;;;;;;;;5031274;28;20478;-67
2022/03/14 10:28:28;;;;;;;36.15;17.30;;;;;;;;;;5033623;28;20298;-68
2022/03/14 10:30:58;;;;;;;42.13;17.73;;;;;;;;;;5034488;28;20454;-68
2022/03/14 10:33:30;;;;;;;42.33;20.98;;;;;;;;;;5032746;28;20576;-68
2022/03/14 10:35:57;;;;;;;39.10;18.98;;;;;;;;;;5033747;28;20040;-67
2022/03/14 10:38:26;;;;;;;41.80;18.95;;;;;;;;;;5033314;28;20080;-67
2022/03/14 10:40:56;;;;;;;40.92;18.95;;;;;;;;;;5028046;28;20319;-68
2022/03/14 10:43:30;;;;;;;36.03;17.98;;;;;;;;;;5031199;28;20076;-68
2022/03/14 10:46:01;;;;;;;48.60;20.92;;;;;;;;;;5034013;28;20049;-68
2022/03/14 10:48:34;;;;;;;41.13;19.88;;;;;;;;;;5034498;28;20073;-68
2022/03/14 10:51:08;;;;;;;49.17;22.92;;;;;;;;;;5032090;28;20099;-68
2022/03/14 10:53:40;;;;;;;46.55;22.20;;;;;;;;;;5030145;28;20048;-68
2022/03/14 10:56:08;;;;;;;44.80;20.02;;;;;;;;;;5034154;28;20073;-68
2022/03/14 10:58:36;;;;;;;40.80;20.10;;;;;;;;;;5027721;28;20135;-68
2022/03/14 11:01:07;;;;;;;44.05;21.20;;;;;;;;;;5033491;28;20053;-68
2022/03/14 11:03:59;;;;;;;35.92;17.90;;;;;;;;;;5036695;28;20075;-69
2022/03/14 11:06:28;;;;;;;34.88;16.95;;;;;;;;;;5031502;28;20594;-68
2022/03/14 11:08:58;;;;;;;34.17;18.00;;;;;;;;;;5032235;28;20060;-69
2022/03/14 11:11:26;;;;;;;39.78;19.33;;;;;;;;;;5035794;28;20053;-68
2022/03/14 11:13:55;;;;;;;40.42;18.63;;;;;;;;;;5034319;28;20340;-69
2022/03/14 11:16:26;;;;;;;42.85;19.85;;;;;;;;;;5033971;28;20091;-69
2022/03/14 11:18:54;;;;;;;39.05;20.08;;;;;;;;;;5031855;28;20053;-70
2022/03/14 11:21:24;;;;;;;51.38;20.27;;;;;;;;;;5034658;28;20390;-70
2022/03/14 11:23:53;;;;;;;45.42;21.35;;;;;;;;;;5032868;28;20053;-70
2022/03/14 11:26:21;;;;;;;46.25;18.98;;;;;;;;;;5034091;28;20053;-70
2022/03/14 11:28:50;;;;;;;39.65;18.45;;;;;;;;;;5035769;28;20053;-70
2022/03/14 11:31:18;;;;;;;39.88;18.35;;;;;;;;;;5033933;28;20053;-70
2022/03/14 11:33:48;;;;;;;57.40;25.63;;;;;;;;;;5031943;28;20052;-70
2022/03/14 11:36:18;;;;;;;71.75;31.25;;;;;;;;;;5034567;28;20045;-76
2022/03/14 11:38:47;;;;;;;56.83;25.83;;;;;;;;;;5038429;28;20057;-75
2022/03/14 11:41:15;;;;;;;43.22;21.45;;;;;;;;;;5032405;28;20053;-75
2022/03/14 11:43:45;;;;;;;43.10;20.25;;;;;;;;;;5036212;28;20370;-75
2022/03/14 11:46:35;;;;;;;56.10;26.45;;;;;;;;;;5035940;28;20049;-74
2022/03/14 11:49:17;;;;;;;62.33;27.65;;;;;;;;;;5031178;28;20073;-75
2022/03/14 11:51:48;;;;;;;53.53;28.45;;;;;;;;;;5031087;28;20136;-75
2022/03/14 11:54:16;;;;;;;49.72;25.63;;;;;;;;;;5030770;28;20692;-74
2022/03/14 11:56:54;;;;;;;50.67;24.33;;;;;;;;;;5032909;28;20041;-75
2022/03/14 11:59:29;;;;;;;40.10;19.02;;;;;;;;;;5033094;28;20076;-75
2022/03/14 12:01:58;;;;;;;37.53;16.88;;;;;;;;;;5033725;28;20279;-75
2022/03/14 12:04:29;;;;;;;44.25;19.40;;;;;;;;;;5034786;28;20122;-74
2022/03/14 12:07:16;;;;;;;39.17;17.38;;;;;;;;;;5031352;28;20045;-74
2022/03/14 12:09:49;;;;;;;29.63;14.40;;;;;;;;;;5036828;28;20129;-74
2022/03/14 12:12:32;;;;;;;32.13;15.27;;;;;;;;;;5033631;28;20144;-74
2022/03/14 12:15:01;;;;;;;31.20;15.05;;;;;;;;;;5032183;28;20094;-74
2022/03/14 12:17:30;;;;;;;31.83;15.02;;;;;;;;;;5034715;28;20056;-74
2022/03/14 12:19:59;;;;;;;29.27;14.23;;;;;;;;;;5035793;28;20057;-73
2022/03/14 12:22:47;;;;;;;25.48;13.23;;;;;;;;;;5034393;28;20053;-74
2022/03/14 12:25:30;;;;;;;23.38;10.93;;;;;;;;;;5027307;28;20045;-74
2022/03/14 12:28:19;;;;;;;23.42;11.65;;;;;;;;;;5031452;28;20104;-74
2022/03/14 12:30:49;;;;;;;27.00;12.32;;;;;;;;;;5037584;28;20160;-73
2022/03/14 12:33:30;;;;;;;28.17;13.50;;;;;;;;;;5034369;28;20123;-74
2022/03/14 12:35:58;;;;;;;25.02;11.32;;;;;;;;;;5032985;28;20126;-75
2022/03/14 12:38:25;;;;;;;19.63;10.30;;;;;;;;;;5031292;28;20053;-75
2022/03/14 12:40:56;;;;;;;23.80;10.80;;;;;;;;;;5031055;28;20049;-74
2022/03/14 12:43:27;;;;;;;22.02;11.05;;;;;;;;;;5030718;28;20048;-73
2022/03/14 12:45:56;;;;;;;22.38;10.75;;;;;;;;;;5032731;28;20106;-74
2022/03/14 12:48:25;;;;;;;25.20;11.07;;;;;;;;;;5029739;28;20120;-75
2022/03/14 12:50:54;;;;;;;21.05;10.48;;;;;;;;;;5028030;28;20089;-75
2022/03/14 12:53:37;;;;;;;21.88;9.38;;;;;;;;;;5029764;28;20300;-74
2022/03/14 12:56:11;;;;;;;24.25;11.20;;;;;;;;;;5031386;28;20103;-74
2022/03/14 12:58:48;;;;;;;21.50;8.60;;;;;;;;;;5029177;28;20561;-76
2022/03/14 13:01:17;;;;;;;23.75;9.32;;;;;;;;;;5038989;28;20160;-76
2022/03/14 13:03:46;;;;;;;22.50;11.23;;;;;;;;;;5033844;28;20203;-76
2022/03/14 13:06:14;;;;;;;27.17;13.32;;;;;;;;;;5030394;28;20052;-76
2022/03/14 13:08:49;;;;;;;29.23;12.40;;;;;;;;;;5030749;28;20090;-75
2022/03/14 13:11:18;;;;;;;25.10;11.70;;;;;;;;;;5036054;28;20060;-76
2022/03/14 13:13:47;;;;;;;31.70;11.40;;;;;;;;;;5029960;28;20063;-75
2022/03/14 13:16:16;;;;;;;26.27;10.52;;;;;;;;;;5032439;28;20354;-74
2022/03/14 13:18:45;;;;;;;23.45;12.25;;;;;;;;;;5036350;28;20051;-75
2022/03/14 13:21:13;;;;;;;23.88;10.32;;;;;;;;;;5035505;28;20048;-75
2022/03/14 13:23:41;;;;;;;20.77;9.68;;;;;;;;;;5034080;28;20076;-76
2022/03/14 13:26:09;;;;;;;22.17;9.38;;;;;;;;;;5031877;28;20180;-75
2022/03/14 13:28:38;;;;;;;24.00;9.65;;;;;;;;;;5034091;28;20048;-77
2022/03/14 13:31:09;;;;;;;23.30;8.82;;;;;;;;;;5035533;28;20055;-75
2022/03/14 13:33:38;;;;;;;22.25;9.63;;;;;;;;;;5029822;28;20068;-75
2022/03/14 13:36:06;;;;;;;22.35;8.18;;;;;;;;;;5035021;28;20037;-76
2022/03/14 13:38:36;;;;;;;17.13;8.13;;;;;;;;;;5031033;28;20515;-76
2022/03/14 13:41:05;;;;;;;21.50;8.10;;;;;;;;;;5028741;28;20055;-74
2022/03/14 13:43:58;;;;;;;21.60;7.85;;;;;;;;;;5035302;28;20060;-71
2022/03/14 13:46:29;;;;;;;19.95;7.75;;;;;;;;;;5036959;28;20425;-71
2022/03/14 13:48:59;;;;;;;18.55;7.25;;;;;;;;;;5032208;28;20131;-71
2022/03/14 13:51:28;;;;;;;19.85;8.02;;;;;;;;;;5033072;28;20148;-72
2022/03/14 13:53:55;;;;;;;23.23;7.38;;;;;;;;;;5024708;28;20063;-71
2022/03/14 13:56:24;;;;;;;24.77;7.25;;;;;;;;;;5030242;28;20136;-72
2022/03/14 13:59:09;;;;;;;17.15;6.07;;;;;;;;;;5030892;28;20074;-72
2022/03/14 14:01:46;;;;;;;16.25;5.70;;;;;;;;;;5033727;28;20515;-72
2022/03/14 14:04:15;;;;;;;19.33;5.18;;;;;;;;;;5032425;28;20053;-71
2022/03/14 14:06:46;;;;;;;15.45;4.75;;;;;;;;;;5032661;28;20044;-75
2022/03/14 14:09:32;;;;;;;13.88;4.60;;;;;;;;;;5030029;28;20135;-75
2022/03/14 14:12:02;;;;;;;17.90;4.75;;;;;;;;;;5031098;28;20050;-74
2022/03/14 14:14:37;;;;;;;15.65;4.50;;;;;;;;;;5036028;28;20476;-71
2022/03/14 14:17:09;;;;;;;18.02;4.47;;;;;;;;;;5028447;28;20049;-74
2022/03/14 14:19:37;;;;;;;14.43;4.63;;;;;;;;;;5036272;28;20049;-75
2022/03/14 14:22:05;;;;;;;14.13;4.03;;;;;;;;;;5035884;28;20091;-74
2022/03/14 14:24:33;;;;;;;11.98;4.38;;;;;;;;;;5036991;28;20132;-74
2022/03/14 14:27:01;;;;;;;19.20;4.65;;;;;;;;;;5035485;28;20057;-73
2022/03/14 14:29:44;;;;;;;16.13;4.65;;;;;;;;;;5035690;28;20060;-73
2022/03/14 14:32:18;;;;;;;17.65;4.43;;;;;;;;;;5031262;28;20481;-75
2022/03/14 14:34:45;;;;;;;21.02;4.72;;;;;;;;;;5034152;28;20172;-74
2022/03/14 14:37:13;;;;;;;13.65;4.28;;;;;;;;;;5035204;28;20049;-74
2022/03/14 14:39:42;;;;;;;13.98;4.13;;;;;;;;;;5038805;28;20045;-75
2022/03/14 14:42:11;;;;;;;16.48;4.65;;;;;;;;;;5033720;28;20145;-72